sensor_id;sensor_type;location;lat;lon;timestamp;temperature;humidity
31725;DHT22;18306;40.960;14.836;2024-03-07T00:01:04;10.20;62.20
31725;DHT22;18306;40.960;14.836;2024-03-07T00:03:31;10.20;63.20
31725;DHT22;18306;40.960;14.836;2024-03-07T00:05:58;10.10;63.30
31725;DHT22;18306;40.960;14.836;2024-03-07T00:08:25;10.10;63.50
31725;DHT22;18306;40.960;14.836;2024-03-07T00:10:51;10.10;63.70
31725;DHT22;18306;40.960;14.836;2024-03-07T00:13:18;10.10;63.70
31725;DHT22;18306;40.960;14.836;2024-03-07T00:15:45;10.20;63.10
31725;DHT22;18306;40.960;14.836;2024-03-07T00:18:12;10.20;63.10
31725;DHT22;18306;40.960;14.836;2024-03-07T00:20:38;10.10;63.80
31725;DHT22;18306;40.960;14.836;2024-03-07T00:23:05;10.00;64.70
31725;DHT22;18306;40.960;14.836;2024-03-07T00:25:32;10.10;65.20
31725;DHT22;18306;40.960;14.836;2024-03-07T00:27:59;10.10;65.30
31725;DHT22;18306;40.960;14.836;2024-03-07T00:30:29;10.10;65.30
31725;DHT22;18306;40.960;14.836;2024-03-07T00:32:56;10.10;64.50
31725;DHT22;18306;40.960;14.836;2024-03-07T00:35:23;10.10;65.20
31725;DHT22;18306;40.960;14.836;2024-03-07T00:37:51;10.10;65.30
31725;DHT22;18306;40.960;14.836;2024-03-07T00:40:18;10.10;65.70
31725;DHT22;18306;40.960;14.836;2024-03-07T00:42:45;10.00;65.90
31725;DHT22;18306;40.960;14.836;2024-03-07T00:45:12;10.00;66.20
31725;DHT22;18306;40.960;14.836;2024-03-07T00:47:39;10.00;66.10
31725;DHT22;18306;40.960;14.836;2024-03-07T00:50:06;10.00;66.60
31725;DHT22;18306;40.960;14.836;2024-03-07T00:52:35;9.90;67.00
31725;DHT22;18306;40.960;14.836;2024-03-07T00:55:02;10.00;67.40
31725;DHT22;18306;40.960;14.836;2024-03-07T00:57:29;10.00;67.50
31725;DHT22;18306;40.960;14.836;2024-03-07T00:59:55;10.00;67.50
31725;DHT22;18306;40.960;14.836;2024-03-07T01:02:23;10.10;67.50
31725;DHT22;18306;40.960;14.836;2024-03-07T01:04:49;10.00;67.50
31725;DHT22;18306;40.960;14.836;2024-03-07T01:07:16;10.00;67.70
31725;DHT22;18306;40.960;14.836;2024-03-07T01:09:43;10.00;67.30
31725;DHT22;18306;40.960;14.836;2024-03-07T01:12:09;9.90;67.40
31725;DHT22;18306;40.960;14.836;2024-03-07T01:14:37;9.80;67.70
31725;DHT22;18306;40.960;14.836;2024-03-07T01:17:04;9.70;68.00
31725;DHT22;18306;40.960;14.836;2024-03-07T01:19:34;9.80;67.90
31725;DHT22;18306;40.960;14.836;2024-03-07T01:22:00;9.80;67.80
31725;DHT22;18306;40.960;14.836;2024-03-07T01:24:27;9.70;68.20
31725;DHT22;18306;40.960;14.836;2024-03-07T01:26:54;9.60;68.70
31725;DHT22;18306;40.960;14.836;2024-03-07T01:29:25;9.60;68.70
31725;DHT22;18306;40.960;14.836;2024-03-07T01:32:01;9.50;69.00
31725;DHT22;18306;40.960;14.836;2024-03-07T01:34:33;9.40;69.50
31725;DHT22;18306;40.960;14.836;2024-03-07T01:37:07;9.40;69.70
31725;DHT22;18306;40.960;14.836;2024-03-07T01:39:46;9.40;69.80
31725;DHT22;18306;40.960;14.836;2024-03-07T01:42:14;9.40;70.30
31725;DHT22;18306;40.960;14.836;2024-03-07T01:44:41;9.50;70.40
31725;DHT22;18306;40.960;14.836;2024-03-07T01:47:10;9.50;70.50
31725;DHT22;18306;40.960;14.836;2024-03-07T01:49:37;9.50;70.10
31725;DHT22;18306;40.960;14.836;2024-03-07T01:52:05;9.60;70.00
31725;DHT22;18306;40.960;14.836;2024-03-07T01:54:32;9.60;69.80
31725;DHT22;18306;40.960;14.836;2024-03-07T01:56:58;9.60;69.90
31725;DHT22;18306;40.960;14.836;2024-03-07T01:59:25;9.50;70.20
31725;DHT22;18306;40.960;14.836;2024-03-07T02:02:00;9.50;70.50
31725;DHT22;18306;40.960;14.836;2024-03-07T02:04:29;9.60;70.40
31725;DHT22;18306;40.960;14.836;2024-03-07T02:06:57;9.50;70.40
31725;DHT22;18306;40.960;14.836;2024-03-07T02:09:24;9.50;70.30
31725;DHT22;18306;40.960;14.836;2024-03-07T02:11:51;9.40;70.90
31725;DHT22;18306;40.960;14.836;2024-03-07T02:14:18;9.40;71.20
31725;DHT22;18306;40.960;14.836;2024-03-07T02:16:45;9.40;70.90
31725;DHT22;18306;40.960;14.836;2024-03-07T02:19:13;9.40;71.00
31725;DHT22;18306;40.960;14.836;2024-03-07T02:21:41;9.30;71.30
31725;DHT22;18306;40.960;14.836;2024-03-07T02:24:08;9.30;71.50
31725;DHT22;18306;40.960;14.836;2024-03-07T02:26:35;9.40;71.20
31725;DHT22;18306;40.960;14.836;2024-03-07T02:29:01;9.40;71.40
31725;DHT22;18306;40.960;14.836;2024-03-07T02:31:29;9.40;71.30
31725;DHT22;18306;40.960;14.836;2024-03-07T02:34:03;9.30;71.70
31725;DHT22;18306;40.960;14.836;2024-03-07T02:36:30;9.20;72.00
31725;DHT22;18306;40.960;14.836;2024-03-07T02:38:57;9.10;72.50
31725;DHT22;18306;40.960;14.836;2024-03-07T02:41:24;9.00;73.40
31725;DHT22;18306;40.960;14.836;2024-03-07T02:43:51;8.90;73.90
31725;DHT22;18306;40.960;14.836;2024-03-07T02:46:18;8.70;74.60
31725;DHT22;18306;40.960;14.836;2024-03-07T02:48:45;8.60;75.10
31725;DHT22;18306;40.960;14.836;2024-03-07T02:51:12;8.50;75.30
31725;DHT22;18306;40.960;14.836;2024-03-07T02:53:39;8.60;75.00
31725;DHT22;18306;40.960;14.836;2024-03-07T02:56:06;8.60;74.60
31725;DHT22;18306;40.960;14.836;2024-03-07T02:58:35;8.30;75.20
31725;DHT22;18306;40.960;14.836;2024-03-07T03:01:02;8.20;76.40
31725;DHT22;18306;40.960;14.836;2024-03-07T03:03:29;8.10;76.80
31725;DHT22;18306;40.960;14.836;2024-03-07T03:05:59;8.00;76.80
31725;DHT22;18306;40.960;14.836;2024-03-07T03:08:26;7.90;76.90
31725;DHT22;18306;40.960;14.836;2024-03-07T03:10:55;7.90;77.20
31725;DHT22;18306;40.960;14.836;2024-03-07T03:13:26;7.90;77.40
31725;DHT22;18306;40.960;14.836;2024-03-07T03:15:55;7.70;78.10
31725;DHT22;18306;40.960;14.836;2024-03-07T03:18:22;7.70;78.20
31725;DHT22;18306;40.960;14.836;2024-03-07T03:20:50;7.60;78.10
31725;DHT22;18306;40.960;14.836;2024-03-07T03:23:16;7.40;79.10
31725;DHT22;18306;40.960;14.836;2024-03-07T03:25:43;7.40;79.50
31725;DHT22;18306;40.960;14.836;2024-03-07T03:28:10;7.30;80.50
31725;DHT22;18306;40.960;14.836;2024-03-07T03:30:37;7.30;80.70
31725;DHT22;18306;40.960;14.836;2024-03-07T03:33:04;7.30;80.80
31725;DHT22;18306;40.960;14.836;2024-03-07T03:35:32;7.30;80.70
31725;DHT22;18306;40.960;14.836;2024-03-07T03:37:59;7.20;81.00
31725;DHT22;18306;40.960;14.836;2024-03-07T03:40:26;7.20;81.20
31725;DHT22;18306;40.960;14.836;2024-03-07T03:42:53;7.20;81.30
31725;DHT22;18306;40.960;14.836;2024-03-07T03:45:20;7.00;81.10
31725;DHT22;18306;40.960;14.836;2024-03-07T03:47:47;6.80;82.20
31725;DHT22;18306;40.960;14.836;2024-03-07T03:50:14;6.80;81.80
31725;DHT22;18306;40.960;14.836;2024-03-07T03:52:41;6.70;82.40
31725;DHT22;18306;40.960;14.836;2024-03-07T03:55:08;6.70;82.80
31725;DHT22;18306;40.960;14.836;2024-03-07T03:57:38;6.70;83.00
31725;DHT22;18306;40.960;14.836;2024-03-07T04:00:06;6.80;82.80
31725;DHT22;18306;40.960;14.836;2024-03-07T04:02:39;6.70;81.30
31725;DHT22;18306;40.960;14.836;2024-03-07T04:05:06;6.40;82.00
31725;DHT22;18306;40.960;14.836;2024-03-07T04:07:33;6.00;84.50
31725;DHT22;18306;40.960;14.836;2024-03-07T04:10:01;6.00;85.30
31725;DHT22;18306;40.960;14.836;2024-03-07T04:12:34;6.00;85.80
31725;DHT22;18306;40.960;14.836;2024-03-07T04:15:00;6.00;85.90
31725;DHT22;18306;40.960;14.836;2024-03-07T04:17:27;6.20;85.10
31725;DHT22;18306;40.960;14.836;2024-03-07T04:19:55;6.30;84.50
31725;DHT22;18306;40.960;14.836;2024-03-07T04:22:21;6.10;85.30
31725;DHT22;18306;40.960;14.836;2024-03-07T04:24:49;6.00;85.70
31725;DHT22;18306;40.960;14.836;2024-03-07T04:27:20;5.90;85.90
31725;DHT22;18306;40.960;14.836;2024-03-07T04:29:47;5.80;86.50
31725;DHT22;18306;40.960;14.836;2024-03-07T04:32:15;5.70;87.00
31725;DHT22;18306;40.960;14.836;2024-03-07T04:34:46;5.80;86.70
31725;DHT22;18306;40.960;14.836;2024-03-07T04:37:13;5.60;86.30
31725;DHT22;18306;40.960;14.836;2024-03-07T04:39:39;5.50;87.50
31725;DHT22;18306;40.960;14.836;2024-03-07T04:42:07;5.60;88.30
31725;DHT22;18306;40.960;14.836;2024-03-07T04:44:35;5.50;88.60
31725;DHT22;18306;40.960;14.836;2024-03-07T04:47:05;5.50;89.10
31725;DHT22;18306;40.960;14.836;2024-03-07T04:49:32;5.70;88.20
31725;DHT22;18306;40.960;14.836;2024-03-07T04:52:00;5.70;87.60
31725;DHT22;18306;40.960;14.836;2024-03-07T04:54:27;5.70;87.60
31725;DHT22;18306;40.960;14.836;2024-03-07T04:56:54;5.80;87.70
31725;DHT22;18306;40.960;14.836;2024-03-07T04:59:21;5.90;87.00
31725;DHT22;18306;40.960;14.836;2024-03-07T05:01:49;5.90;86.70
31725;DHT22;18306;40.960;14.836;2024-03-07T05:04:18;5.90;86.90
31725;DHT22;18306;40.960;14.836;2024-03-07T05:06:45;5.80;86.70
31725;DHT22;18306;40.960;14.836;2024-03-07T05:09:14;5.70;87.00
31725;DHT22;18306;40.960;14.836;2024-03-07T05:11:51;5.50;88.10
31725;DHT22;18306;40.960;14.836;2024-03-07T05:14:18;5.40;89.20
31725;DHT22;18306;40.960;14.836;2024-03-07T05:16:45;5.40;89.40
31725;DHT22;18306;40.960;14.836;2024-03-07T05:19:12;5.60;88.70
31725;DHT22;18306;40.960;14.836;2024-03-07T05:21:39;5.60;88.70
31725;DHT22;18306;40.960;14.836;2024-03-07T05:24:07;5.60;88.50
31725;DHT22;18306;40.960;14.836;2024-03-07T05:26:37;5.70;88.40
31725;DHT22;18306;40.960;14.836;2024-03-07T05:29:06;5.80;86.70
31725;DHT22;18306;40.960;14.836;2024-03-07T05:31:37;5.80;86.50
31725;DHT22;18306;40.960;14.836;2024-03-07T05:34:04;5.60;87.40
31725;DHT22;18306;40.960;14.836;2024-03-07T05:36:37;5.50;87.70
31725;DHT22;18306;40.960;14.836;2024-03-07T05:39:13;5.60;86.60
31725;DHT22;18306;40.960;14.836;2024-03-07T05:41:41;5.60;86.90
31725;DHT22;18306;40.960;14.836;2024-03-07T05:44:08;5.60;86.80
31725;DHT22;18306;40.960;14.836;2024-03-07T05:46:38;5.60;86.40
31725;DHT22;18306;40.960;14.836;2024-03-07T05:49:12;5.50;87.60
31725;DHT22;18306;40.960;14.836;2024-03-07T05:51:39;5.50;88.60
31725;DHT22;18306;40.960;14.836;2024-03-07T05:54:08;5.70;88.20
31725;DHT22;18306;40.960;14.836;2024-03-07T05:56:35;5.90;88.00
31725;DHT22;18306;40.960;14.836;2024-03-07T05:59:02;5.90;88.10
31725;DHT22;18306;40.960;14.836;2024-03-07T06:01:33;5.90;88.60
31725;DHT22;18306;40.960;14.836;2024-03-07T06:04:00;6.00;89.00
31725;DHT22;18306;40.960;14.836;2024-03-07T06:06:28;6.10;89.10
31725;DHT22;18306;40.960;14.836;2024-03-07T06:08:56;6.20;88.80
31725;DHT22;18306;40.960;14.836;2024-03-07T06:11:23;6.40;88.70
31725;DHT22;18306;40.960;14.836;2024-03-07T06:13:50;6.50;87.90
31725;DHT22;18306;40.960;14.836;2024-03-07T06:16:16;6.60;85.80
31725;DHT22;18306;40.960;14.836;2024-03-07T06:18:44;6.40;85.50
31725;DHT22;18306;40.960;14.836;2024-03-07T06:21:13;6.30;85.90
31725;DHT22;18306;40.960;14.836;2024-03-07T06:23:40;6.20;86.40
31725;DHT22;18306;40.960;14.836;2024-03-07T06:26:07;6.10;87.40
31725;DHT22;18306;40.960;14.836;2024-03-07T06:28:39;6.00;88.00
31725;DHT22;18306;40.960;14.836;2024-03-07T06:31:06;6.10;87.60
31725;DHT22;18306;40.960;14.836;2024-03-07T06:33:34;6.10;87.90
31725;DHT22;18306;40.960;14.836;2024-03-07T06:36:02;6.10;88.00
31725;DHT22;18306;40.960;14.836;2024-03-07T06:38:29;6.20;87.50
31725;DHT22;18306;40.960;14.836;2024-03-07T06:40:55;6.40;87.00
31725;DHT22;18306;40.960;14.836;2024-03-07T06:43:23;6.50;86.80
31725;DHT22;18306;40.960;14.836;2024-03-07T06:45:51;6.70;86.50
31725;DHT22;18306;40.960;14.836;2024-03-07T06:48:19;6.80;85.80
31725;DHT22;18306;40.960;14.836;2024-03-07T06:50:47;7.00;85.20
31725;DHT22;18306;40.960;14.836;2024-03-07T06:53:14;7.20;84.70
31725;DHT22;18306;40.960;14.836;2024-03-07T06:55:40;7.30;84.20
31725;DHT22;18306;40.960;14.836;2024-03-07T06:58:07;7.50;83.30
31725;DHT22;18306;40.960;14.836;2024-03-07T07:00:34;7.70;82.30
31725;DHT22;18306;40.960;14.836;2024-03-07T07:03:04;7.90;82.10
31725;DHT22;18306;40.960;14.836;2024-03-07T07:05:30;8.00;82.60
31725;DHT22;18306;40.960;14.836;2024-03-07T07:07:57;8.20;82.30
31725;DHT22;18306;40.960;14.836;2024-03-07T07:10:24;8.30;81.60
31725;DHT22;18306;40.960;14.836;2024-03-07T07:12:51;8.30;81.10
31725;DHT22;18306;40.960;14.836;2024-03-07T07:15:21;8.30;81.30
31725;DHT22;18306;40.960;14.836;2024-03-07T07:17:48;8.30;81.10
31725;DHT22;18306;40.960;14.836;2024-03-07T07:20:16;8.40;81.70
31725;DHT22;18306;40.960;14.836;2024-03-07T07:22:43;8.50;80.60
31725;DHT22;18306;40.960;14.836;2024-03-07T07:25:12;8.70;80.10
31725;DHT22;18306;40.960;14.836;2024-03-07T07:27:51;8.90;79.60
31725;DHT22;18306;40.960;14.836;2024-03-07T07:30:20;8.90;78.30
31725;DHT22;18306;40.960;14.836;2024-03-07T07:32:50;9.10;77.80
31725;DHT22;18306;40.960;14.836;2024-03-07T07:35:17;9.30;77.40
31725;DHT22;18306;40.960;14.836;2024-03-07T07:37:46;9.50;76.70
31725;DHT22;18306;40.960;14.836;2024-03-07T07:40:15;9.60;76.40
31725;DHT22;18306;40.960;14.836;2024-03-07T07:42:45;9.70;75.80
31725;DHT22;18306;40.960;14.836;2024-03-07T07:45:13;9.90;75.50
31725;DHT22;18306;40.960;14.836;2024-03-07T07:47:41;10.20;74.60
31725;DHT22;18306;40.960;14.836;2024-03-07T07:50:12;10.50;73.50
31725;DHT22;18306;40.960;14.836;2024-03-07T07:55:11;10.70;71.40
31725;DHT22;18306;40.960;14.836;2024-03-07T07:57:44;10.60;70.80
31725;DHT22;18306;40.960;14.836;2024-03-07T08:00:11;10.80;69.80
31725;DHT22;18306;40.960;14.836;2024-03-07T08:02:41;11.10;67.80
31725;DHT22;18306;40.960;14.836;2024-03-07T08:05:08;11.30;67.30
31725;DHT22;18306;40.960;14.836;2024-03-07T08:07:37;11.90;66.20
31725;DHT22;18306;40.960;14.836;2024-03-07T08:10:05;12.20;65.10
31725;DHT22;18306;40.960;14.836;2024-03-07T08:12:32;12.20;64.90
31725;DHT22;18306;40.960;14.836;2024-03-07T08:14:59;12.10;64.30
31725;DHT22;18306;40.960;14.836;2024-03-07T08:17:28;12.00;64.40
31725;DHT22;18306;40.960;14.836;2024-03-07T08:19:55;11.80;64.40
31725;DHT22;18306;40.960;14.836;2024-03-07T08:22:22;11.70;65.20
31725;DHT22;18306;40.960;14.836;2024-03-07T08:24:51;11.70;65.00
31725;DHT22;18306;40.960;14.836;2024-03-07T08:27:18;11.80;64.80
31725;DHT22;18306;40.960;14.836;2024-03-07T08:29:45;11.80;64.50
31725;DHT22;18306;40.960;14.836;2024-03-07T08:32:11;11.90;63.90
31725;DHT22;18306;40.960;14.836;2024-03-07T08:34:38;11.90;63.20
31725;DHT22;18306;40.960;14.836;2024-03-07T08:37:05;12.00;63.20
31725;DHT22;18306;40.960;14.836;2024-03-07T08:39:31;12.00;62.40
31725;DHT22;18306;40.960;14.836;2024-03-07T08:41:58;12.00;62.40
31725;DHT22;18306;40.960;14.836;2024-03-07T08:44:25;11.90;62.90
31725;DHT22;18306;40.960;14.836;2024-03-07T08:46:52;11.90;63.80
31725;DHT22;18306;40.960;14.836;2024-03-07T08:49:19;11.80;63.30
31725;DHT22;18306;40.960;14.836;2024-03-07T08:51:46;11.90;64.10
31725;DHT22;18306;40.960;14.836;2024-03-07T08:54:14;11.90;64.40
31725;DHT22;18306;40.960;14.836;2024-03-07T08:56:40;11.80;63.50
31725;DHT22;18306;40.960;14.836;2024-03-07T08:59:07;11.70;63.60
31725;DHT22;18306;40.960;14.836;2024-03-07T09:01:34;11.70;64.60
31725;DHT22;18306;40.960;14.836;2024-03-07T09:04:01;11.80;63.90
31725;DHT22;18306;40.960;14.836;2024-03-07T09:06:27;11.90;63.60
31725;DHT22;18306;40.960;14.836;2024-03-07T09:08:54;11.90;63.40
31725;DHT22;18306;40.960;14.836;2024-03-07T09:11:21;11.90;63.50
31725;DHT22;18306;40.960;14.836;2024-03-07T09:13:48;11.80;64.00
31725;DHT22;18306;40.960;14.836;2024-03-07T09:16:16;11.80;64.00
31725;DHT22;18306;40.960;14.836;2024-03-07T09:18:43;11.80;63.80
31725;DHT22;18306;40.960;14.836;2024-03-07T09:21:09;11.80;63.10
31725;DHT22;18306;40.960;14.836;2024-03-07T09:23:36;11.70;63.40
31725;DHT22;18306;40.960;14.836;2024-03-07T09:26:03;11.70;63.30
31725;DHT22;18306;40.960;14.836;2024-03-07T09:28:32;11.70;63.20
31725;DHT22;18306;40.960;14.836;2024-03-07T09:30:59;11.80;62.90
31725;DHT22;18306;40.960;14.836;2024-03-07T09:33:26;11.80;62.70
31725;DHT22;18306;40.960;14.836;2024-03-07T09:35:52;11.80;63.00
31725;DHT22;18306;40.960;14.836;2024-03-07T09:38:19;11.80;61.90
31725;DHT22;18306;40.960;14.836;2024-03-07T09:40:47;11.90;61.30
31725;DHT22;18306;40.960;14.836;2024-03-07T09:43:13;11.90;60.80
31725;DHT22;18306;40.960;14.836;2024-03-07T09:45:40;12.00;60.10
31725;DHT22;18306;40.960;14.836;2024-03-07T09:48:08;12.10;59.90
31725;DHT22;18306;40.960;14.836;2024-03-07T09:50:35;12.10;59.80
31725;DHT22;18306;40.960;14.836;2024-03-07T09:53:02;12.20;59.60
31725;DHT22;18306;40.960;14.836;2024-03-07T09:55:31;12.20;59.50
31725;DHT22;18306;40.960;14.836;2024-03-07T09:57:58;12.10;60.40
31725;DHT22;18306;40.960;14.836;2024-03-07T10:00:27;12.30;60.80
31725;DHT22;18306;40.960;14.836;2024-03-07T10:02:57;12.40;60.10
31725;DHT22;18306;40.960;14.836;2024-03-07T10:05:26;12.40;60.20
31725;DHT22;18306;40.960;14.836;2024-03-07T10:07:53;12.40;60.10
31725;DHT22;18306;40.960;14.836;2024-03-07T10:10:20;12.40;59.00
31725;DHT22;18306;40.960;14.836;2024-03-07T10:12:48;12.40;59.60
31725;DHT22;18306;40.960;14.836;2024-03-07T10:15:15;12.30;59.90
31725;DHT22;18306;40.960;14.836;2024-03-07T10:17:44;12.30;59.90
31725;DHT22;18306;40.960;14.836;2024-03-07T10:20:14;12.20;59.90
31725;DHT22;18306;40.960;14.836;2024-03-07T10:22:46;12.20;60.00
31725;DHT22;18306;40.960;14.836;2024-03-07T10:25:18;12.30;58.20
31725;DHT22;18306;40.960;14.836;2024-03-07T10:27:46;12.30;59.00
31725;DHT22;18306;40.960;14.836;2024-03-07T10:30:15;12.40;59.00
31725;DHT22;18306;40.960;14.836;2024-03-07T10:32:47;12.40;58.20
31725;DHT22;18306;40.960;14.836;2024-03-07T10:35:19;12.40;59.00
31725;DHT22;18306;40.960;14.836;2024-03-07T10:37:48;12.40;59.70
31725;DHT22;18306;40.960;14.836;2024-03-07T10:40:16;12.50;60.00
31725;DHT22;18306;40.960;14.836;2024-03-07T10:42:45;12.60;59.70
31725;DHT22;18306;40.960;14.836;2024-03-07T10:45:18;12.70;59.50
31725;DHT22;18306;40.960;14.836;2024-03-07T10:47:54;12.80;58.50
31725;DHT22;18306;40.960;14.836;2024-03-07T10:52:59;12.80;58.10
31725;DHT22;18306;40.960;14.836;2024-03-07T10:55:35;12.80;58.10
31725;DHT22;18306;40.960;14.836;2024-03-07T10:58:08;12.70;58.20
31725;DHT22;18306;40.960;14.836;2024-03-07T11:00:38;12.60;58.70
31725;DHT22;18306;40.960;14.836;2024-03-07T11:03:12;12.60;59.00
31725;DHT22;18306;40.960;14.836;2024-03-07T11:05:40;12.60;59.10
31725;DHT22;18306;40.960;14.836;2024-03-07T11:08:09;12.60;58.90
31725;DHT22;18306;40.960;14.836;2024-03-07T11:10:39;12.70;59.30
31725;DHT22;18306;40.960;14.836;2024-03-07T11:13:07;12.70;58.30
31725;DHT22;18306;40.960;14.836;2024-03-07T11:15:36;12.70;58.40
31725;DHT22;18306;40.960;14.836;2024-03-07T11:18:04;12.60;58.20
31725;DHT22;18306;40.960;14.836;2024-03-07T11:20:34;12.50;58.90
31725;DHT22;18306;40.960;14.836;2024-03-07T11:23:02;12.50;59.00
31725;DHT22;18306;40.960;14.836;2024-03-07T11:25:49;12.50;58.50
31725;DHT22;18306;40.960;14.836;2024-03-07T11:28:16;12.50;59.00
31725;DHT22;18306;40.960;14.836;2024-03-07T11:30:46;12.40;58.80
31725;DHT22;18306;40.960;14.836;2024-03-07T11:33:13;12.30;59.10
31725;DHT22;18306;40.960;14.836;2024-03-07T11:35:40;12.30;59.20
31725;DHT22;18306;40.960;14.836;2024-03-07T11:38:15;12.30;59.70
31725;DHT22;18306;40.960;14.836;2024-03-07T11:43:11;12.30;61.40
31725;DHT22;18306;40.960;14.836;2024-03-07T11:45:38;12.30;61.50
31725;DHT22;18306;40.960;14.836;2024-03-07T11:48:18;12.40;62.20
31725;DHT22;18306;40.960;14.836;2024-03-07T11:50:46;12.50;61.70
31725;DHT22;18306;40.960;14.836;2024-03-07T11:53:13;12.50;61.10
31725;DHT22;18306;40.960;14.836;2024-03-07T11:55:40;12.60;61.60
31725;DHT22;18306;40.960;14.836;2024-03-07T11:58:20;12.60;61.20
31725;DHT22;18306;40.960;14.836;2024-03-07T12:00:48;12.60;61.40
31725;DHT22;18306;40.960;14.836;2024-03-07T12:03:15;12.60;61.00
31725;DHT22;18306;40.960;14.836;2024-03-07T12:05:49;12.60;60.10
31725;DHT22;18306;40.960;14.836;2024-03-07T12:08:19;12.60;59.40
31725;DHT22;18306;40.960;14.836;2024-03-07T12:10:49;12.60;59.20
31725;DHT22;18306;40.960;14.836;2024-03-07T12:13:20;12.60;60.10
31725;DHT22;18306;40.960;14.836;2024-03-07T12:15:47;12.60;60.70
31725;DHT22;18306;40.960;14.836;2024-03-07T12:18:13;12.60;60.90
31725;DHT22;18306;40.960;14.836;2024-03-07T12:20:41;12.70;60.50
31725;DHT22;18306;40.960;14.836;2024-03-07T12:23:08;12.60;59.70
31725;DHT22;18306;40.960;14.836;2024-03-07T12:25:35;12.60;59.80
31725;DHT22;18306;40.960;14.836;2024-03-07T12:28:07;12.50;59.20
31725;DHT22;18306;40.960;14.836;2024-03-07T12:33:13;12.70;58.90
31725;DHT22;18306;40.960;14.836;2024-03-07T12:36:01;12.90;58.40
31725;DHT22;18306;40.960;14.836;2024-03-07T12:38:32;13.00;59.20
31725;DHT22;18306;40.960;14.836;2024-03-07T12:41:06;13.00;58.00
31725;DHT22;18306;40.960;14.836;2024-03-07T12:43:40;13.10;58.10
31725;DHT22;18306;40.960;14.836;2024-03-07T12:46:11;13.20;58.70
31725;DHT22;18306;40.960;14.836;2024-03-07T12:48:41;13.10;58.60
31725;DHT22;18306;40.960;14.836;2024-03-07T12:51:15;13.00;59.60
31725;DHT22;18306;40.960;14.836;2024-03-07T12:53:52;12.80;59.00
31725;DHT22;18306;40.960;14.836;2024-03-07T12:56:20;12.70;59.70
31725;DHT22;18306;40.960;14.836;2024-03-07T12:58:47;12.80;59.20
31725;DHT22;18306;40.960;14.836;2024-03-07T13:01:15;12.80;58.60
31725;DHT22;18306;40.960;14.836;2024-03-07T13:03:44;12.80;57.60
31725;DHT22;18306;40.960;14.836;2024-03-07T13:06:13;12.80;56.40
31725;DHT22;18306;40.960;14.836;2024-03-07T13:08:40;12.90;56.10
31725;DHT22;18306;40.960;14.836;2024-03-07T13:11:06;13.00;57.50
31725;DHT22;18306;40.960;14.836;2024-03-07T13:13:35;12.90;57.00
31725;DHT22;18306;40.960;14.836;2024-03-07T13:16:03;12.90;56.30
31725;DHT22;18306;40.960;14.836;2024-03-07T13:18:29;13.00;56.10
31725;DHT22;18306;40.960;14.836;2024-03-07T13:21:00;13.10;56.70
31725;DHT22;18306;40.960;14.836;2024-03-07T13:23:30;13.30;56.40
31725;DHT22;18306;40.960;14.836;2024-03-07T13:26:02;13.40;55.20
31725;DHT22;18306;40.960;14.836;2024-03-07T13:28:34;13.50;56.60
31725;DHT22;18306;40.960;14.836;2024-03-07T13:31:01;13.50;56.10
31725;DHT22;18306;40.960;14.836;2024-03-07T13:33:29;13.40;55.20
31725;DHT22;18306;40.960;14.836;2024-03-07T13:35:57;13.30;56.20
31725;DHT22;18306;40.960;14.836;2024-03-07T13:38:27;13.30;56.20
31725;DHT22;18306;40.960;14.836;2024-03-07T13:40:55;13.40;56.70
31725;DHT22;18306;40.960;14.836;2024-03-07T13:43:23;13.40;56.70
31725;DHT22;18306;40.960;14.836;2024-03-07T13:45:50;13.30;56.60
31725;DHT22;18306;40.960;14.836;2024-03-07T13:48:17;13.20;56.20
31725;DHT22;18306;40.960;14.836;2024-03-07T13:50:45;13.20;56.20
31725;DHT22;18306;40.960;14.836;2024-03-07T13:53:12;13.10;57.00
31725;DHT22;18306;40.960;14.836;2024-03-07T13:58:10;13.00;57.50
31725;DHT22;18306;40.960;14.836;2024-03-07T14:00:47;13.00;57.10
31725;DHT22;18306;40.960;14.836;2024-03-07T14:06:08;13.20;57.10
31725;DHT22;18306;40.960;14.836;2024-03-07T14:21:47;13.40;55.80
31725;DHT22;18306;40.960;14.836;2024-03-07T14:29:43;13.10;55.10
31725;DHT22;18306;40.960;14.836;2024-03-07T14:32:12;13.00;56.50
31725;DHT22;18306;40.960;14.836;2024-03-07T14:37:19;13.00;56.30
31725;DHT22;18306;40.960;14.836;2024-03-07T14:39:51;13.10;56.60
31725;DHT22;18306;40.960;14.836;2024-03-07T14:42:19;13.10;57.50
31725;DHT22;18306;40.960;14.836;2024-03-07T14:44:46;13.10;57.20
31725;DHT22;18306;40.960;14.836;2024-03-07T14:47:16;13.00;57.70
31725;DHT22;18306;40.960;14.836;2024-03-07T14:49:43;12.90;57.70
31725;DHT22;18306;40.960;14.836;2024-03-07T14:52:13;12.90;58.20
31725;DHT22;18306;40.960;14.836;2024-03-07T14:54:41;12.90;58.00
31725;DHT22;18306;40.960;14.836;2024-03-07T14:57:09;13.00;58.80
31725;DHT22;18306;40.960;14.836;2024-03-07T14:59:38;12.90;58.80
31725;DHT22;18306;40.960;14.836;2024-03-07T15:02:07;12.90;58.50
31725;DHT22;18306;40.960;14.836;2024-03-07T15:04:39;13.00;59.40
31725;DHT22;18306;40.960;14.836;2024-03-07T15:07:07;13.00;59.40
31725;DHT22;18306;40.960;14.836;2024-03-07T15:09:35;13.00;59.90
31725;DHT22;18306;40.960;14.836;2024-03-07T15:12:03;13.10;60.10
31725;DHT22;18306;40.960;14.836;2024-03-07T15:14:30;13.10;59.80
31725;DHT22;18306;40.960;14.836;2024-03-07T15:16:57;13.10;59.60
31725;DHT22;18306;40.960;14.836;2024-03-07T15:19:23;13.10;59.40
31725;DHT22;18306;40.960;14.836;2024-03-07T15:21:50;13.00;58.70
31725;DHT22;18306;40.960;14.836;2024-03-07T15:24:18;12.90;59.20
31725;DHT22;18306;40.960;14.836;2024-03-07T15:26:48;12.90;59.40
31725;DHT22;18306;40.960;14.836;2024-03-07T15:29:16;12.90;59.50
31725;DHT22;18306;40.960;14.836;2024-03-07T15:31:48;12.90;58.70
31725;DHT22;18306;40.960;14.836;2024-03-07T15:34:16;12.80;60.00
31725;DHT22;18306;40.960;14.836;2024-03-07T15:36:44;12.80;59.30
31725;DHT22;18306;40.960;14.836;2024-03-07T15:39:11;12.70;59.50
31725;DHT22;18306;40.960;14.836;2024-03-07T15:41:54;12.70;59.90
31725;DHT22;18306;40.960;14.836;2024-03-07T15:44:21;12.70;59.60
31725;DHT22;18306;40.960;14.836;2024-03-07T15:46:48;12.70;59.60
31725;DHT22;18306;40.960;14.836;2024-03-07T15:49:15;12.70;59.70
31725;DHT22;18306;40.960;14.836;2024-03-07T15:51:43;12.60;59.30
31725;DHT22;18306;40.960;14.836;2024-03-07T15:54:12;12.60;59.30
31725;DHT22;18306;40.960;14.836;2024-03-07T15:56:44;12.60;59.70
31725;DHT22;18306;40.960;14.836;2024-03-07T15:59:11;12.60;59.60
31725;DHT22;18306;40.960;14.836;2024-03-07T16:01:38;12.60;59.50
31725;DHT22;18306;40.960;14.836;2024-03-07T16:04:05;12.60;59.40
31725;DHT22;18306;40.960;14.836;2024-03-07T16:06:33;12.60;58.90